sensor_id;sensor_type;location;lat;lon;timestamp;P1;durP1;ratioP1;P2;durP2;ratioP2
58338;SDS011;68636;52.704;6.536;2023-06-10T00:01:47;8.63;;;2.90;;
58338;SDS011;68636;52.704;6.536;2023-06-10T00:04:13;9.77;;;3.40;;
58338;SDS011;68636;52.704;6.536;2023-06-10T00:06:41;9.07;;;3.30;;
58338;SDS011;68636;52.704;6.536;2023-06-10T00:09:07;8.30;;;3.57;;
58338;SDS011;68636;52.704;6.536;2023-06-10T00:11:36;10.57;;;3.55;;
58338;SDS011;68636;52.704;6.536;2023-06-10T00:14:02;9.85;;;3.38;;
58338;SDS011;68636;52.704;6.536;2023-06-10T00:16:28;9.63;;;3.00;;
58338;SDS011;68636;52.704;6.536;2023-06-10T00:18:55;11.07;;;3.30;;
58338;SDS011;68636;52.704;6.536;2023-06-10T00:21:25;6.45;;;2.80;;
58338;SDS011;68636;52.704;6.536;2023-06-10T00:23:55;9.07;;;3.30;;
58338;SDS011;68636;52.704;6.536;2023-06-10T00:26:24;10.43;;;3.63;;
58338;SDS011;68636;52.704;6.536;2023-06-10T00:28:51;12.68;;;3.75;;
58338;SDS011;68636;52.704;6.536;2023-06-10T00:31:17;14.50;;;3.85;;
58338;SDS011;68636;52.704;6.536;2023-06-10T00:33:43;10.10;;;3.50;;
58338;SDS011;68636;52.704;6.536;2023-06-10T00:36:09;7.33;;;3.23;;
58338;SDS011;68636;52.704;6.536;2023-06-10T00:38:35;8.43;;;3.30;;
58338;SDS011;68636;52.704;6.536;2023-06-10T00:41:01;8.73;;;3.10;;
58338;SDS011;68636;52.704;6.536;2023-06-10T00:43:26;10.63;;;3.30;;
58338;SDS011;68636;52.704;6.536;2023-06-10T00:45:52;12.50;;;3.53;;
58338;SDS011;68636;52.704;6.536;2023-06-10T00:48:18;9.48;;;4.20;;
58338;SDS011;68636;52.704;6.536;2023-06-10T00:50:47;9.43;;;3.63;;
58338;SDS011;68636;52.704;6.536;2023-06-10T00:53:14;8.63;;;3.75;;
58338;SDS011;68636;52.704;6.536;2023-06-10T00:55:40;9.27;;;3.90;;
58338;SDS011;68636;52.704;6.536;2023-06-10T00:58:06;8.90;;;3.58;;
58338;SDS011;68636;52.704;6.536;2023-06-10T01:00:32;11.77;;;4.00;;
58338;SDS011;68636;52.704;6.536;2023-06-10T01:02:58;12.17;;;4.07;;
58338;SDS011;68636;52.704;6.536;2023-06-10T01:05:23;9.13;;;3.77;;
58338;SDS011;68636;52.704;6.536;2023-06-10T01:10:55;10.40;;;3.63;;
58338;SDS011;68636;52.704;6.536;2023-06-10T01:13:25;9.80;;;3.92;;
58338;SDS011;68636;52.704;6.536;2023-06-10T01:15:56;14.10;;;3.92;;
58338;SDS011;68636;52.704;6.536;2023-06-10T01:18:23;11.55;;;4.00;;
58338;SDS011;68636;52.704;6.536;2023-06-10T01:20:55;13.60;;;3.92;;
58338;SDS011;68636;52.704;6.536;2023-06-10T01:23:21;11.48;;;4.20;;
58338;SDS011;68636;52.704;6.536;2023-06-10T01:25:49;13.10;;;4.05;;
58338;SDS011;68636;52.704;6.536;2023-06-10T01:28:49;9.60;;;4.30;;
58338;SDS011;68636;52.704;6.536;2023-06-10T01:31:31;14.43;;;4.00;;
58338;SDS011;68636;52.704;6.536;2023-06-10T01:34:02;8.98;;;3.95;;
58338;SDS011;68636;52.704;6.536;2023-06-10T01:36:33;12.02;;;4.03;;
58338;SDS011;68636;52.704;6.536;2023-06-10T01:39:01;8.73;;;3.97;;
58338;SDS011;68636;52.704;6.536;2023-06-10T01:41:29;11.07;;;4.30;;
58338;SDS011;68636;52.704;6.536;2023-06-10T01:43:56;8.75;;;3.83;;
58338;SDS011;68636;52.704;6.536;2023-06-10T01:46:21;9.80;;;4.57;;
58338;SDS011;68636;52.704;6.536;2023-06-10T01:48:47;10.83;;;5.07;;
58338;SDS011;68636;52.704;6.536;2023-06-10T01:51:13;9.57;;;4.10;;
58338;SDS011;68636;52.704;6.536;2023-06-10T01:53:39;11.20;;;4.57;;
58338;SDS011;68636;52.704;6.536;2023-06-10T01:56:05;11.80;;;4.50;;
58338;SDS011;68636;52.704;6.536;2023-06-10T01:58:30;13.05;;;4.70;;
58338;SDS011;68636;52.704;6.536;2023-06-10T02:00:56;10.40;;;4.50;;
58338;SDS011;68636;52.704;6.536;2023-06-10T02:03:22;9.93;;;4.60;;
58338;SDS011;68636;52.704;6.536;2023-06-10T02:05:48;10.65;;;4.50;;
58338;SDS011;68636;52.704;6.536;2023-06-10T02:08:14;9.23;;;4.85;;
58338;SDS011;68636;52.704;6.536;2023-06-10T02:10:40;10.52;;;4.57;;
58338;SDS011;68636;52.704;6.536;2023-06-10T02:13:06;11.10;;;4.57;;
58338;SDS011;68636;52.704;6.536;2023-06-10T02:15:32;10.43;;;4.53;;
58338;SDS011;68636;52.704;6.536;2023-06-10T02:17:57;12.85;;;4.30;;
58338;SDS011;68636;52.704;6.536;2023-06-10T02:22:50;14.85;;;4.80;;
58338;SDS011;68636;52.704;6.536;2023-06-10T02:25:16;11.90;;;4.53;;
58338;SDS011;68636;52.704;6.536;2023-06-10T02:27:42;11.25;;;4.55;;
58338;SDS011;68636;52.704;6.536;2023-06-10T02:30:08;9.90;;;4.60;;
58338;SDS011;68636;52.704;6.536;2023-06-10T02:32:37;14.95;;;4.72;;
58338;SDS011;68636;52.704;6.536;2023-06-10T02:35:03;8.93;;;4.50;;
58338;SDS011;68636;52.704;6.536;2023-06-10T02:37:29;9.77;;;4.55;;
58338;SDS011;68636;52.704;6.536;2023-06-10T02:39:55;11.63;;;4.70;;
58338;SDS011;68636;52.704;6.536;2023-06-10T02:42:21;11.40;;;4.50;;
58338;SDS011;68636;52.704;6.536;2023-06-10T02:44:46;11.13;;;4.80;;
58338;SDS011;68636;52.704;6.536;2023-06-10T02:47:12;13.35;;;5.50;;
58338;SDS011;68636;52.704;6.536;2023-06-10T02:49:38;14.57;;;5.00;;
58338;SDS011;68636;52.704;6.536;2023-06-10T02:52:03;11.13;;;4.82;;
58338;SDS011;68636;52.704;6.536;2023-06-10T02:54:29;9.63;;;4.90;;
58338;SDS011;68636;52.704;6.536;2023-06-10T02:56:55;14.35;;;5.05;;
58338;SDS011;68636;52.704;6.536;2023-06-10T02:59:21;12.93;;;5.00;;
58338;SDS011;68636;52.704;6.536;2023-06-10T03:01:47;11.95;;;4.60;;
58338;SDS011;68636;52.704;6.536;2023-06-10T03:04:13;12.15;;;4.63;;
58338;SDS011;68636;52.704;6.536;2023-06-10T03:06:40;11.15;;;5.32;;
58338;SDS011;68636;52.704;6.536;2023-06-10T03:09:06;10.00;;;4.68;;
58338;SDS011;68636;52.704;6.536;2023-06-10T03:11:34;13.27;;;4.78;;
58338;SDS011;68636;52.704;6.536;2023-06-10T03:14:00;11.45;;;4.80;;
58338;SDS011;68636;52.704;6.536;2023-06-10T03:16:26;13.63;;;4.85;;
58338;SDS011;68636;52.704;6.536;2023-06-10T03:18:52;8.27;;;4.40;;
58338;SDS011;68636;52.704;6.536;2023-06-10T03:21:18;13.18;;;4.80;;
58338;SDS011;68636;52.704;6.536;2023-06-10T03:23:44;10.07;;;4.85;;
58338;SDS011;68636;52.704;6.536;2023-06-10T03:26:11;12.77;;;4.43;;
58338;SDS011;68636;52.704;6.536;2023-06-10T03:28:40;12.25;;;4.63;;
58338;SDS011;68636;52.704;6.536;2023-06-10T03:31:06;11.18;;;4.53;;
58338;SDS011;68636;52.704;6.536;2023-06-10T03:33:32;15.38;;;4.97;;
58338;SDS011;68636;52.704;6.536;2023-06-10T03:35:58;12.73;;;4.63;;
58338;SDS011;68636;52.704;6.536;2023-06-10T03:38:24;13.32;;;4.43;;
58338;SDS011;68636;52.704;6.536;2023-06-10T03:40:50;9.48;;;4.65;;
58338;SDS011;68636;52.704;6.536;2023-06-10T03:43:16;11.88;;;4.60;;
58338;SDS011;68636;52.704;6.536;2023-06-10T03:45:42;14.40;;;4.93;;
58338;SDS011;68636;52.704;6.536;2023-06-10T03:48:07;11.52;;;4.65;;
58338;SDS011;68636;52.704;6.536;2023-06-10T03:50:33;10.27;;;4.72;;
58338;SDS011;68636;52.704;6.536;2023-06-10T03:53:01;8.80;;;4.20;;
58338;SDS011;68636;52.704;6.536;2023-06-10T03:55:27;12.43;;;4.32;;
58338;SDS011;68636;52.704;6.536;2023-06-10T03:57:53;13.47;;;4.30;;
58338;SDS011;68636;52.704;6.536;2023-06-10T04:00:19;9.45;;;4.53;;
58338;SDS011;68636;52.704;6.536;2023-06-10T04:02:46;14.30;;;4.90;;
58338;SDS011;68636;52.704;6.536;2023-06-10T04:05:17;11.55;;;4.47;;
58338;SDS011;68636;52.704;6.536;2023-06-10T04:07:46;10.13;;;4.30;;
58338;SDS011;68636;52.704;6.536;2023-06-10T04:10:13;10.23;;;4.18;;
58338;SDS011;68636;52.704;6.536;2023-06-10T04:12:39;11.95;;;4.22;;
58338;SDS011;68636;52.704;6.536;2023-06-10T04:15:06;11.20;;;4.47;;
58338;SDS011;68636;52.704;6.536;2023-06-10T04:17:32;10.73;;;4.00;;
58338;SDS011;68636;52.704;6.536;2023-06-10T04:19:58;12.10;;;4.70;;
58338;SDS011;68636;52.704;6.536;2023-06-10T04:22:25;9.30;;;4.40;;
58338;SDS011;68636;52.704;6.536;2023-06-10T04:24:51;12.97;;;4.60;;
58338;SDS011;68636;52.704;6.536;2023-06-10T04:27:17;13.67;;;5.13;;
58338;SDS011;68636;52.704;6.536;2023-06-10T04:29:43;12.50;;;4.97;;
58338;SDS011;68636;52.704;6.536;2023-06-10T04:32:09;11.88;;;4.38;;
58338;SDS011;68636;52.704;6.536;2023-06-10T04:34:36;9.88;;;4.35;;
58338;SDS011;68636;52.704;6.536;2023-06-10T04:37:05;11.82;;;4.43;;
58338;SDS011;68636;52.704;6.536;2023-06-10T04:39:31;10.73;;;4.80;;
58338;SDS011;68636;52.704;6.536;2023-06-10T04:41:57;12.80;;;4.45;;
58338;SDS011;68636;52.704;6.536;2023-06-10T04:44:24;11.93;;;4.70;;
58338;SDS011;68636;52.704;6.536;2023-06-10T04:46:50;10.30;;;4.85;;
58338;SDS011;68636;52.704;6.536;2023-06-10T04:49:16;12.75;;;4.50;;
58338;SDS011;68636;52.704;6.536;2023-06-10T04:51:41;12.20;;;4.20;;
58338;SDS011;68636;52.704;6.536;2023-06-10T04:54:07;10.60;;;4.60;;
58338;SDS011;68636;52.704;6.536;2023-06-10T04:56:33;12.65;;;4.50;;
58338;SDS011;68636;52.704;6.536;2023-06-10T04:58:59;11.10;;;4.32;;
58338;SDS011;68636;52.704;6.536;2023-06-10T05:01:25;10.20;;;4.95;;
58338;SDS011;68636;52.704;6.536;2023-06-10T05:03:51;9.88;;;5.15;;
58338;SDS011;68636;52.704;6.536;2023-06-10T05:06:17;9.65;;;4.20;;
58338;SDS011;68636;52.704;6.536;2023-06-10T05:08:43;10.98;;;4.38;;
58338;SDS011;68636;52.704;6.536;2023-06-10T05:11:09;10.57;;;5.20;;
58338;SDS011;68636;52.704;6.536;2023-06-10T05:13:35;8.85;;;4.15;;
58338;SDS011;68636;52.704;6.536;2023-06-10T05:16:00;10.43;;;4.00;;
58338;SDS011;68636;52.704;6.536;2023-06-10T05:18:26;11.48;;;4.20;;
58338;SDS011;68636;52.704;6.536;2023-06-10T05:20:52;12.60;;;4.70;;
58338;SDS011;68636;52.704;6.536;2023-06-10T05:23:19;12.98;;;4.68;;
58338;SDS011;68636;52.704;6.536;2023-06-10T05:25:45;11.32;;;4.63;;
58338;SDS011;68636;52.704;6.536;2023-06-10T05:28:11;12.65;;;4.57;;
58338;SDS011;68636;52.704;6.536;2023-06-10T05:30:37;12.77;;;5.18;;
58338;SDS011;68636;52.704;6.536;2023-06-10T05:33:03;12.63;;;4.40;;
58338;SDS011;68636;52.704;6.536;2023-06-10T05:35:29;9.23;;;4.53;;
58338;SDS011;68636;52.704;6.536;2023-06-10T05:37:55;9.02;;;4.25;;
58338;SDS011;68636;52.704;6.536;2023-06-10T05:40:21;12.82;;;5.00;;
58338;SDS011;68636;52.704;6.536;2023-06-10T05:42:47;11.27;;;4.78;;
58338;SDS011;68636;52.704;6.536;2023-06-10T05:45:13;10.67;;;4.47;;
58338;SDS011;68636;52.704;6.536;2023-06-10T05:47:38;12.00;;;5.00;;
58338;SDS011;68636;52.704;6.536;2023-06-10T05:50:05;11.90;;;5.60;;
58338;SDS011;68636;52.704;6.536;2023-06-10T05:54:58;13.23;;;5.55;;
58338;SDS011;68636;52.704;6.536;2023-06-10T05:57:25;11.53;;;4.77;;
58338;SDS011;68636;52.704;6.536;2023-06-10T05:59:51;13.43;;;4.80;;
58338;SDS011;68636;52.704;6.536;2023-06-10T06:02:17;22.38;;;5.57;;
58338;SDS011;68636;52.704;6.536;2023-06-10T06:04:42;12.50;;;4.53;;
58338;SDS011;68636;52.704;6.536;2023-06-10T06:07:08;9.82;;;4.43;;
58338;SDS011;68636;52.704;6.536;2023-06-10T06:09:34;16.17;;;5.07;;
58338;SDS011;68636;52.704;6.536;2023-06-10T06:12:00;11.80;;;4.90;;
58338;SDS011;68636;52.704;6.536;2023-06-10T06:14:25;11.88;;;5.20;;
58338;SDS011;68636;52.704;6.536;2023-06-10T06:16:51;16.30;;;5.40;;
58338;SDS011;68636;52.704;6.536;2023-06-10T06:19:17;12.10;;;4.97;;
58338;SDS011;68636;52.704;6.536;2023-06-10T06:21:43;11.68;;;4.47;;
58338;SDS011;68636;52.704;6.536;2023-06-10T06:24:08;13.07;;;4.88;;
58338;SDS011;68636;52.704;6.536;2023-06-10T06:26:34;11.05;;;4.55;;
58338;SDS011;68636;52.704;6.536;2023-06-10T06:29:00;10.00;;;4.67;;
58338;SDS011;68636;52.704;6.536;2023-06-10T06:31:26;12.23;;;4.57;;
58338;SDS011;68636;52.704;6.536;2023-06-10T06:33:51;10.90;;;4.47;;
58338;SDS011;68636;52.704;6.536;2023-06-10T06:36:17;11.73;;;4.23;;
58338;SDS011;68636;52.704;6.536;2023-06-10T06:38:43;14.80;;;4.65;;
58338;SDS011;68636;52.704;6.536;2023-06-10T06:41:08;12.53;;;4.70;;
58338;SDS011;68636;52.704;6.536;2023-06-10T06:43:34;11.33;;;4.80;;
58338;SDS011;68636;52.704;6.536;2023-06-10T06:46:00;10.93;;;5.07;;
58338;SDS011;68636;52.704;6.536;2023-06-10T06:48:26;13.90;;;4.83;;
58338;SDS011;68636;52.704;6.536;2023-06-10T06:50:51;13.90;;;4.23;;
58338;SDS011;68636;52.704;6.536;2023-06-10T06:53:17;10.53;;;4.70;;
58338;SDS011;68636;52.704;6.536;2023-06-10T06:55:43;12.23;;;4.40;;
58338;SDS011;68636;52.704;6.536;2023-06-10T06:58:09;11.90;;;5.00;;
58338;SDS011;68636;52.704;6.536;2023-06-10T07:00:34;11.27;;;4.30;;
58338;SDS011;68636;52.704;6.536;2023-06-10T07:03:00;10.30;;;4.37;;
58338;SDS011;68636;52.704;6.536;2023-06-10T07:05:26;11.20;;;4.43;;
58338;SDS011;68636;52.704;6.536;2023-06-10T07:07:52;12.63;;;4.50;;
58338;SDS011;68636;52.704;6.536;2023-06-10T07:10:23;10.13;;;4.15;;
58338;SDS011;68636;52.704;6.536;2023-06-10T07:12:50;12.45;;;4.50;;
58338;SDS011;68636;52.704;6.536;2023-06-10T07:15:16;11.75;;;4.20;;
58338;SDS011;68636;52.704;6.536;2023-06-10T07:17:42;13.90;;;4.87;;
58338;SDS011;68636;52.704;6.536;2023-06-10T07:20:08;11.63;;;4.85;;
58338;SDS011;68636;52.704;6.536;2023-06-10T07:22:34;11.45;;;4.45;;
58338;SDS011;68636;52.704;6.536;2023-06-10T07:25:00;10.43;;;3.83;;
58338;SDS011;68636;52.704;6.536;2023-06-10T07:27:29;10.98;;;4.45;;
58338;SDS011;68636;52.704;6.536;2023-06-10T07:29:54;11.87;;;4.17;;
58338;SDS011;68636;52.704;6.536;2023-06-10T07:32:20;10.17;;;4.00;;
58338;SDS011;68636;52.704;6.536;2023-06-10T07:37:12;7.63;;;3.63;;
58338;SDS011;68636;52.704;6.536;2023-06-10T07:39:38;10.67;;;4.13;;
58338;SDS011;68636;52.704;6.536;2023-06-10T07:42:04;9.37;;;4.20;;
58338;SDS011;68636;52.704;6.536;2023-06-10T07:44:31;9.13;;;3.67;;
58338;SDS011;68636;52.704;6.536;2023-06-10T07:46:57;8.67;;;3.73;;
58338;SDS011;68636;52.704;6.536;2023-06-10T07:49:23;12.13;;;3.90;;
58338;SDS011;68636;52.704;6.536;2023-06-10T07:51:50;10.23;;;4.40;;
58338;SDS011;68636;52.704;6.536;2023-06-10T07:54:16;10.05;;;3.83;;
58338;SDS011;68636;52.704;6.536;2023-06-10T07:56:41;11.63;;;3.73;;
58338;SDS011;68636;52.704;6.536;2023-06-10T07:59:07;10.03;;;4.30;;
58338;SDS011;68636;52.704;6.536;2023-06-10T08:01:33;9.43;;;4.00;;
58338;SDS011;68636;52.704;6.536;2023-06-10T08:04:00;9.45;;;4.45;;
58338;SDS011;68636;52.704;6.536;2023-06-10T08:06:32;10.18;;;4.28;;
58338;SDS011;68636;52.704;6.536;2023-06-10T08:08:58;10.30;;;4.30;;
58338;SDS011;68636;52.704;6.536;2023-06-10T08:13:53;8.98;;;3.70;;
58338;SDS011;68636;52.704;6.536;2023-06-10T08:16:19;21.63;;;8.00;;
58338;SDS011;68636;52.704;6.536;2023-06-10T08:18:45;33.07;;;16.53;;
58338;SDS011;68636;52.704;6.536;2023-06-10T08:21:10;9.33;;;3.40;;
58338;SDS011;68636;52.704;6.536;2023-06-10T08:23:36;9.50;;;3.50;;
58338;SDS011;68636;52.704;6.536;2023-06-10T08:26:02;9.83;;;3.20;;
58338;SDS011;68636;52.704;6.536;2023-06-10T08:28:27;8.97;;;3.63;;
58338;SDS011;68636;52.704;6.536;2023-06-10T08:30:53;8.63;;;3.40;;
58338;SDS011;68636;52.704;6.536;2023-06-10T08:33:19;13.67;;;3.90;;
58338;SDS011;68636;52.704;6.536;2023-06-10T08:35:45;8.53;;;3.33;;
58338;SDS011;68636;52.704;6.536;2023-06-10T08:38:10;12.23;;;3.80;;
58338;SDS011;68636;52.704;6.536;2023-06-10T08:40:37;8.10;;;3.47;;
58338;SDS011;68636;52.704;6.536;2023-06-10T08:43:06;9.03;;;3.63;;
58338;SDS011;68636;52.704;6.536;2023-06-10T08:45:36;11.88;;;3.60;;
58338;SDS011;68636;52.704;6.536;2023-06-10T08:48:03;8.15;;;3.40;;
58338;SDS011;68636;52.704;6.536;2023-06-10T08:50:35;10.88;;;3.30;;
58338;SDS011;68636;52.704;6.536;2023-06-10T08:53:04;8.55;;;3.70;;
58338;SDS011;68636;52.704;6.536;2023-06-10T08:55:42;9.32;;;3.70;;
58338;SDS011;68636;52.704;6.536;2023-06-10T08:58:08;10.07;;;3.50;;
58338;SDS011;68636;52.704;6.536;2023-06-10T09:00:35;9.88;;;3.95;;
58338;SDS011;68636;52.704;6.536;2023-06-10T09:03:02;12.52;;;3.88;;
58338;SDS011;68636;52.704;6.536;2023-06-10T09:05:31;17.17;;;4.40;;
58338;SDS011;68636;52.704;6.536;2023-06-10T09:07:58;8.27;;;4.05;;
58338;SDS011;68636;52.704;6.536;2023-06-10T09:10:26;9.90;;;4.43;;
58338;SDS011;68636;52.704;6.536;2023-06-10T09:12:52;12.70;;;4.78;;
58338;SDS011;68636;52.704;6.536;2023-06-10T09:15:18;15.45;;;4.47;;
58338;SDS011;68636;52.704;6.536;2023-06-10T09:17:44;10.20;;;4.20;;
58338;SDS011;68636;52.704;6.536;2023-06-10T09:20:10;10.40;;;4.30;;
58338;SDS011;68636;52.704;6.536;2023-06-10T09:22:36;11.02;;;4.55;;
58338;SDS011;68636;52.704;6.536;2023-06-10T09:27:30;13.32;;;4.15;;
58338;SDS011;68636;52.704;6.536;2023-06-10T09:29:59;8.68;;;4.15;;
58338;SDS011;68636;52.704;6.536;2023-06-10T09:32:25;10.63;;;4.37;;
58338;SDS011;68636;52.704;6.536;2023-06-10T09:34:52;8.77;;;3.90;;
58338;SDS011;68636;52.704;6.536;2023-06-10T09:37:21;8.73;;;3.70;;
58338;SDS011;68636;52.704;6.536;2023-06-10T09:40:06;13.65;;;4.28;;
58338;SDS011;68636;52.704;6.536;2023-06-10T09:42:35;8.52;;;3.60;;
58338;SDS011;68636;52.704;6.536;2023-06-10T09:45:05;9.20;;;4.05;;
58338;SDS011;68636;52.704;6.536;2023-06-10T09:47:32;9.20;;;4.10;;
58338;SDS011;68636;52.704;6.536;2023-06-10T09:49:58;8.43;;;4.37;;
58338;SDS011;68636;52.704;6.536;2023-06-10T09:52:24;8.60;;;4.22;;
58338;SDS011;68636;52.704;6.536;2023-06-10T09:54:51;8.95;;;4.50;;
58338;SDS011;68636;52.704;6.536;2023-06-10T09:57:17;7.57;;;3.90;;
58338;SDS011;68636;52.704;6.536;2023-06-10T09:59:44;13.27;;;4.85;;
58338;SDS011;68636;52.704;6.536;2023-06-10T10:02:14;10.35;;;4.43;;
58338;SDS011;68636;52.704;6.536;2023-06-10T10:04:41;8.38;;;4.38;;
58338;SDS011;68636;52.704;6.536;2023-06-10T10:07:07;9.15;;;4.80;;
58338;SDS011;68636;52.704;6.536;2023-06-10T10:09:37;7.95;;;4.30;;
58338;SDS011;68636;52.704;6.536;2023-06-10T10:12:06;10.30;;;4.30;;
58338;SDS011;68636;52.704;6.536;2023-06-10T10:14:37;8.93;;;3.65;;
58338;SDS011;68636;52.704;6.536;2023-06-10T10:17:04;8.77;;;3.83;;
58338;SDS011;68636;52.704;6.536;2023-06-10T10:19:48;6.97;;;3.97;;
58338;SDS011;68636;52.704;6.536;2023-06-10T10:22:20;9.90;;;3.50;;
58338;SDS011;68636;52.704;6.536;2023-06-10T10:24:59;13.90;;;3.72;;
58338;SDS011;68636;52.704;6.536;2023-06-10T10:27:30;9.95;;;3.75;;
58338;SDS011;68636;52.704;6.536;2023-06-10T10:30:01;7.20;;;3.30;;
58338;SDS011;68636;52.704;6.536;2023-06-10T10:35:30;8.75;;;3.72;;
58338;SDS011;68636;52.704;6.536;2023-06-10T10:37:58;6.10;;;2.65;;
58338;SDS011;68636;52.704;6.536;2023-06-10T10:40:25;8.75;;;2.70;;
58338;SDS011;68636;52.704;6.536;2023-06-10T10:42:55;6.97;;;3.05;;
58338;SDS011;68636;52.704;6.536;2023-06-10T10:45:22;5.45;;;3.20;;
58338;SDS011;68636;52.704;6.536;2023-06-10T10:47:52;7.85;;;3.25;;
58338;SDS011;68636;52.704;6.536;2023-06-10T10:50:19;8.10;;;3.03;;
58338;SDS011;68636;52.704;6.536;2023-06-10T10:52:46;7.03;;;2.97;;
58338;SDS011;68636;52.704;6.536;2023-06-10T10:55:21;8.45;;;2.63;;
58338;SDS011;68636;52.704;6.536;2023-06-10T11:00:49;9.13;;;3.10;;
58338;SDS011;68636;52.704;6.536;2023-06-10T11:03:15;5.65;;;2.83;;
58338;SDS011;68636;52.704;6.536;2023-06-10T11:08:13;7.05;;;2.50;;
58338;SDS011;68636;52.704;6.536;2023-06-10T11:10:51;7.53;;;2.90;;
58338;SDS011;68636;52.704;6.536;2023-06-10T11:13:20;6.13;;;2.80;;
58338;SDS011;68636;52.704;6.536;2023-06-10T11:15:47;6.57;;;2.83;;
58338;SDS011;68636;52.704;6.536;2023-06-10T11:18:18;6.10;;;2.80;;
58338;SDS011;68636;52.704;6.536;2023-06-10T11:28:38;5.88;;;2.67;;
58338;SDS011;68636;52.704;6.536;2023-06-10T11:33:30;6.40;;;2.58;;
58338;SDS011;68636;52.704;6.536;2023-06-10T11:38:26;6.22;;;2.38;;
58338;SDS011;68636;52.704;6.536;2023-06-10T11:40:52;7.22;;;2.53;;
58338;SDS011;68636;52.704;6.536;2023-06-10T11:43:18;6.68;;;2.70;;
58338;SDS011;68636;52.704;6.536;2023-06-10T11:48:11;7.35;;;2.60;;
58338;SDS011;68636;52.704;6.536;2023-06-10T11:50:38;5.95;;;2.50;;
58338;SDS011;68636;52.704;6.536;2023-06-10T11:53:04;6.03;;;2.40;;
58338;SDS011;68636;52.704;6.536;2023-06-10T11:55:40;5.00;;;2.10;;
58338;SDS011;68636;52.704;6.536;2023-06-10T12:00:49;5.00;;;2.33;;
58338;SDS011;68636;52.704;6.536;2023-06-10T12:03:16;6.53;;;2.53;;
58338;SDS011;68636;52.704;6.536;2023-06-10T12:06:01;4.80;;;2.25;;
58338;SDS011;68636;52.704;6.536;2023-06-10T12:08:28;5.13;;;2.20;;
58338;SDS011;68636;52.704;6.536;2023-06-10T12:10:54;7.35;;;2.42;;
58338;SDS011;68636;52.704;6.536;2023-06-10T12:13:21;5.68;;;2.10;;
58338;SDS011;68636;52.704;6.536;2023-06-10T12:15:48;4.80;;;2.00;;
58338;SDS011;68636;52.704;6.536;2023-06-10T12:18:18;6.90;;;2.10;;
58338;SDS011;68636;52.704;6.536;2023-06-10T12:20:45;4.97;;;2.20;;
58338;SDS011;68636;52.704;6.536;2023-06-10T12:30:30;4.68;;;1.95;;
58338;SDS011;68636;52.704;6.536;2023-06-10T12:32:57;5.22;;;1.98;;
58338;SDS011;68636;52.704;6.536;2023-06-10T12:35:24;4.13;;;2.00;;
58338;SDS011;68636;52.704;6.536;2023-06-10T12:37:58;4.20;;;1.70;;
58338;SDS011;68636;52.704;6.536;2023-06-10T12:40:31;5.03;;;2.03;;
58338;SDS011;68636;52.704;6.536;2023-06-10T12:42:57;6.32;;;2.17;;
58338;SDS011;68636;52.704;6.536;2023-06-10T12:45:30;10.73;;;7.10;;
58338;SDS011;68636;52.704;6.536;2023-06-10T12:48:10;5.50;;;2.17;;
58338;SDS011;68636;52.704;6.536;2023-06-10T12:50:37;6.95;;;2.40;;
58338;SDS011;68636;52.704;6.536;2023-06-10T12:53:04;6.18;;;1.85;;
58338;SDS011;68636;52.704;6.536;2023-06-10T12:57:57;4.80;;;1.90;;
58338;SDS011;68636;52.704;6.536;2023-06-10T13:00:23;4.03;;;1.90;;
58338;SDS011;68636;52.704;6.536;2023-06-10T13:02:54;6.18;;;2.00;;
58338;SDS011;68636;52.704;6.536;2023-06-10T13:05:20;5.75;;;2.00;;
58338;SDS011;68636;52.704;6.536;2023-06-10T13:07:46;6.00;;;1.67;;
58338;SDS011;68636;52.704;6.536;2023-06-10T13:10:13;4.03;;;1.63;;
58338;SDS011;68636;52.704;6.536;2023-06-10T13:12:41;4.47;;;1.63;;
58338;SDS011;68636;52.704;6.536;2023-06-10T13:15:07;6.18;;;1.70;;
58338;SDS011;68636;52.704;6.536;2023-06-10T13:17:33;4.78;;;1.70;;
58338;SDS011;68636;52.704;6.536;2023-06-10T13:20:02;3.33;;;1.40;;
58338;SDS011;68636;52.704;6.536;2023-06-10T13:22:30;3.63;;;1.50;;
58338;SDS011;68636;52.704;6.536;2023-06-10T13:24:58;4.32;;;1.60;;
58338;SDS011;68636;52.704;6.536;2023-06-10T13:27:24;4.50;;;1.50;;
58338;SDS011;68636;52.704;6.536;2023-06-10T13:29:51;6.53;;;1.90;;
58338;SDS011;68636;52.704;6.536;2023-06-10T13:32:17;5.18;;;1.83;;
58338;SDS011;68636;52.704;6.536;2023-06-10T13:34:43;7.53;;;1.80;;
58338;SDS011;68636;52.704;6.536;2023-06-10T13:37:09;5.50;;;1.50;;
58338;SDS011;68636;52.704;6.536;2023-06-10T13:39:37;3.85;;;1.63;;
58338;SDS011;68636;52.704;6.536;2023-06-10T13:42:03;3.88;;;2.00;;
58338;SDS011;68636;52.704;6.536;2023-06-10T13:44:30;4.30;;;1.88;;
58338;SDS011;68636;52.704;6.536;2023-06-10T13:46:58;5.60;;;2.17;;
58338;SDS011;68636;52.704;6.536;2023-06-10T14:06:27;10.65;;;2.03;;
58338;SDS011;68636;52.704;6.536;2023-06-10T14:08:53;5.50;;;1.95;;
58338;SDS011;68636;52.704;6.536;2023-06-10T14:11:20;4.80;;;1.95;;
58338;SDS011;68636;52.704;6.536;2023-06-10T14:13:46;3.58;;;1.67;;
58338;SDS011;68636;52.704;6.536;2023-06-10T14:21:04;3.88;;;1.98;;
58338;SDS011;68636;52.704;6.536;2023-06-10T14:23:30;6.43;;;2.35;;
58338;SDS011;68636;52.704;6.536;2023-06-10T14:25:56;5.10;;;2.33;;
58338;SDS011;68636;52.704;6.536;2023-06-10T14:28:24;4.68;;;2.40;;
58338;SDS011;68636;52.704;6.536;2023-06-10T14:30:51;6.05;;;2.35;;
58338;SDS011;68636;52.704;6.536;2023-06-10T14:35:43;3.95;;;2.28;;
58338;SDS011;68636;52.704;6.536;2023-06-10T14:40:36;5.00;;;2.33;;
58338;SDS011;68636;52.704;6.536;2023-06-10T14:43:02;5.10;;;2.60;;
58338;SDS011;68636;52.704;6.536;2023-06-10T14:45:34;25.42;;;4.40;;
58338;SDS011;68636;52.704;6.536;2023-06-10T14:48:00;4.50;;;2.58;;
58338;SDS011;68636;52.704;6.536;2023-06-10T14:50:26;4.88;;;2.50;;
58338;SDS011;68636;52.704;6.536;2023-06-10T14:52:52;6.97;;;2.88;;
58338;SDS011;68636;52.704;6.536;2023-06-10T14:55:19;4.85;;;2.58;;
58338;SDS011;68636;52.704;6.536;2023-06-10T14:57:45;13.57;;;7.10;;
58338;SDS011;68636;52.704;6.536;2023-06-10T15:00:11;5.18;;;2.90;;
58338;SDS011;68636;52.704;6.536;2023-06-10T15:02:40;6.97;;;2.88;;
58338;SDS011;68636;52.704;6.536;2023-06-10T15:05:06;5.30;;;2.80;;
58338;SDS011;68636;52.704;6.536;2023-06-10T15:07:32;6.10;;;3.08;;
58338;SDS011;68636;52.704;6.536;2023-06-10T15:09:58;6.78;;;3.53;;
58338;SDS011;68636;52.704;6.536;2023-06-10T15:12:25;4.82;;;2.83;;
58338;SDS011;68636;52.704;6.536;2023-06-10T15:14:53;6.07;;;2.83;;
58338;SDS011;68636;52.704;6.536;2023-06-10T15:17:19;4.45;;;3.10;;
58338;SDS011;68636;52.704;6.536;2023-06-10T15:19:45;10.20;;;3.10;;
58338;SDS011;68636;52.704;6.536;2023-06-10T15:22:11;6.68;;;3.08;;
58338;SDS011;68636;52.704;6.536;2023-06-10T15:24:38;7.00;;;2.92;;
58338;SDS011;68636;52.704;6.536;2023-06-10T15:29:31;4.55;;;2.40;;
58338;SDS011;68636;52.704;6.536;2023-06-10T15:31:57;5.35;;;2.60;;
58338;SDS011;68636;52.704;6.536;2023-06-10T15:34:23;7.40;;;2.45;;
58338;SDS011;68636;52.704;6.536;2023-06-10T15:36:49;6.38;;;3.00;;
58338;SDS011;68636;52.704;6.536;2023-06-10T15:39:15;6.28;;;3.85;;
58338;SDS011;68636;52.704;6.536;2023-06-10T15:41:41;6.20;;;2.63;;
58338;SDS011;68636;52.704;6.536;2023-06-10T15:44:07;5.65;;;2.33;;
58338;SDS011;68636;52.704;6.536;2023-06-10T15:46:33;5.97;;;2.40;;
58338;SDS011;68636;52.704;6.536;2023-06-10T15:53:51;6.38;;;2.50;;
58338;SDS011;68636;52.704;6.536;2023-06-10T15:56:18;4.68;;;2.47;;
58338;SDS011;68636;52.704;6.536;2023-06-10T16:03:37;6.75;;;2.92;;
58338;SDS011;68636;52.704;6.536;2023-06-10T16:06:03;7.75;;;2.60;;
58338;SDS011;68636;52.704;6.536;2023-06-10T16:10:55;5.63;;;2.38;;
58338;SDS011;68636;52.704;6.536;2023-06-10T16:13:21;4.28;;;2.17;;